KSEM

Craig Field Airport

Selma, Alabama, USA
METAR KSEM 260355Z AUTO 13004KT 10SM CLR 22/21 A2994 RMK AO2
Observed Flight Rules
May-26 @ 03:55 UTC (25 minutes ago) Visual Flight Rules
Wind Visibility Clouds
130° at 4 knots 10 miles
  • Clear skies
Temperatures Readings
Current 22°C / 72°F
Dewpoint 21°C / 70°F
Humidity 94%
Altimeter 29.94" Hg
Pressure 1014 hPa
Elevation 51
METAR KSEM 260355Z AUTO 13004KT 10SM CLR 22/21 A2994 RMK AO2
Observed Flight Rules
May-26 @ 03:55 UTC
(25 minutes ago)
VFR
Wind Visibility
130° at 4 knots 10 miles
Clouds
  • Clear skies
Temperature Dewpoint
22°C / 72°F 21°C / 70°F
Humidity Altimeter Pressure
94% 29.94" Hg 1014 hPa